Norfolk, Virginia
Traffic Map
Current Weather Conditions
Norfolk, Virginia
Clear
Clear

Feels Like: 1°
Wind Chill: Ceiling: Unl
Heat Index: Visibility: 8mi
Dew Point: -1° Wind: 0mph
Humidity: 89% Direction: ° ()
Pressure: 30.29in Gusts: 0mph
Raw Report DataKORF 210351Z AUTO 00000KT 8SM CLR 01/M01 A3029 RMK AO2 SLP256 T00061011 TSNO
Traffic Incident Summary
Active as of:
Severity:
Category:
InformationThere was an issue retrieving the traffic information for this location. Please try a different location or try again shortly.
Advertisements
Track Severe Weather on mobile